Time;durP1;ratioP1;P1;durP2;ratioP2;P2;SDS_P1;SDS_P2;PMS_P1;PMS_P2;Temp;Humidity;BMP_temperature;BMP_pressure;BME280_temperature;BME280_humidity;BME280_pressure;Samples;Min_cycle;Max_cycle;Signal;HPM_P1;HPM_P2
2021/09/06 00:00:14;;;;;;;30.48;17.05;;;;;;;10.30;100.00;102276.13;5011090;28;20046;-78
2021/09/06 00:02:41;;;;;;;27.27;15.98;;;;;;;10.27;100.00;102269.34;4991090;28;20034;-79
2021/09/06 00:05:09;;;;;;;28.25;15.18;;;;;;;10.26;100.00;102270.25;4990592;28;20117;-78
2021/09/06 00:07:36;;;;;;;27.35;16.95;;;;;;;10.24;100.00;102268.72;4991093;28;20041;-78
2021/09/06 00:10:20;;;;;;;27.35;16.67;;;;;;;10.24;100.00;102256.41;4990920;28;20034;-79
2021/09/06 00:12:46;;;;;;;31.02;17.20;;;;;;;10.20;100.00;102260.22;4995126;28;20034;-79
2021/09/06 00:15:12;;;;;;;28.20;16.80;;;;;;;10.18;100.00;102263.91;4990372;28;20030;-79
2021/09/06 00:17:38;;;;;;;32.67;18.88;;;;;;;10.16;100.00;102257.91;5004119;28;20030;-78
2021/09/06 00:20:05;;;;;;;34.03;18.92;;;;;;;10.16;100.00;102263.16;4992826;28;20065;-78
2021/09/06 00:22:32;;;;;;;33.17;17.80;;;;;;;10.12;100.00;102257.28;4990948;28;20025;-78
2021/09/06 00:24:57;;;;;;;28.42;17.48;;;;;;;10.05;100.00;102249.00;5009012;28;20072;-79
2021/09/06 00:27:23;;;;;;;27.17;17.58;;;;;;;10.06;100.00;102252.47;4975951;28;20492;-80
2021/09/06 00:30:08;;;;;;;30.55;19.15;;;;;;;10.05;100.00;102253.41;5009114;28;20030;-80
2021/09/06 00:32:34;;;;;;;31.65;19.20;;;;;;;10.02;100.00;102251.00;4990322;28;20549;-80
2021/09/06 00:34:59;;;;;;;29.83;18.58;;;;;;;10.07;100.00;102257.59;5025513;28;20058;-80
2021/09/06 00:37:25;;;;;;;31.05;18.80;;;;;;;10.00;100.00;102253.75;5008436;28;20041;-79
2021/09/06 00:39:51;;;;;;;30.60;18.90;;;;;;;10.02;100.00;102259.72;4990670;28;20122;-79
2021/09/06 00:42:16;;;;;;;32.17;18.17;;;;;;;9.94;100.00;102241.91;5007833;28;20037;-79
2021/09/06 00:44:42;;;;;;;31.60;17.92;;;;;;;9.96;100.00;102240.94;4976318;28;20124;-81
2021/09/06 00:47:07;;;;;;;28.42;17.83;;;;;;;9.94;100.00;102231.41;4990103;28;20046;-80
2021/09/06 00:49:33;;;;;;;28.58;17.80;;;;;;;10.03;100.00;102245.66;4975362;28;20866;-79
2021/09/06 00:51:59;;;;;;;29.67;17.73;;;;;;;10.01;100.00;102239.69;4975890;28;20034;-80
2021/09/06 00:54:25;;;;;;;30.00;18.38;;;;;;;9.98;100.00;102241.66;5006827;28;20407;-78
2021/09/06 00:56:53;;;;;;;34.90;20.65;;;;;;;9.98;100.00;102249.53;4990184;28;20030;-80
2021/09/06 00:59:21;;;;;;;33.83;20.67;;;;;;;9.82;100.00;102234.88;4991402;28;20056;-78
2021/09/06 01:01:46;;;;;;;33.08;20.67;;;;;;;9.91;100.00;102249.97;5007155;28;20037;-80
2021/09/06 01:04:13;;;;;;;30.17;18.40;;;;;;;9.91;100.00;102252.59;4975447;28;20044;-81
2021/09/06 01:07:14;;;;;;;30.98;17.90;;;;;;;9.91;100.00;102246.50;4996423;28;20089;-80
2021/09/06 01:10:11;;;;;;;27.25;17.30;;;;;;;9.90;100.00;102243.03;4992943;28;20088;-79
2021/09/06 01:12:55;;;;;;;26.80;16.80;;;;;;;9.82;100.00;102231.41;5001005;28;20041;-79
2021/09/06 01:15:21;;;;;;;25.63;15.77;;;;;;;9.85;100.00;102241.66;4989112;28;20041;-79
2021/09/06 01:17:46;;;;;;;20.58;13.63;;;;;;;9.82;100.00;102245.34;5008712;28;20030;-80
2021/09/06 01:20:13;;;;;;;18.67;12.25;;;;;;;9.78;100.00;102243.88;4994424;28;20045;-80
2021/09/06 01:22:44;;;;;;;21.75;11.65;;;;;;;9.81;100.00;102254.13;5010510;28;20836;-80
2021/09/06 01:25:17;;;;;;;19.67;12.45;;;;;;;9.80;100.00;102249.03;5009845;28;20046;-80
2021/09/06 01:27:46;;;;;;;14.07;10.93;;;;;;;9.84;100.00;102259.19;4974343;28;20034;-80
2021/09/06 01:30:14;;;;;;;16.40;11.13;;;;;;;9.78;100.00;102250.91;5001815;28;20132;-80
2021/09/06 01:32:40;;;;;;;14.38;10.23;;;;;;;9.81;100.00;102266.41;5009020;28;20030;-79
2021/09/06 01:35:07;;;;;;;13.05;9.38;;;;;;;9.70;100.00;102244.41;4993088;28;20117;-81
2021/09/06 01:37:34;;;;;;;13.35;9.60;;;;;;;9.73;100.00;102251.22;4976637;28;20053;-79
2021/09/06 01:40:00;;;;;;;11.85;8.98;;;;;;;9.70;100.00;102247.03;4975629;28;20040;-80
2021/09/06 01:42:26;;;;;;;13.93;10.27;;;;;;;9.66;100.00;102239.47;4991400;28;20072;-79
2021/09/06 01:44:56;;;;;;;13.55;10.23;;;;;;;9.67;100.00;102238.53;4973319;28;20062;-79
2021/09/06 01:47:26;;;;;;;16.50;11.02;;;;;;;9.66;100.00;102245.56;4975059;28;20113;-80
2021/09/06 01:49:52;;;;;;;13.70;9.48;;;;;;;9.70;100.00;102243.56;4985520;28;20492;-80
2021/09/06 01:52:18;;;;;;;13.23;9.90;;;;;;;9.69;100.00;102236.66;5009065;28;20491;-81
2021/09/06 01:54:43;;;;;;;11.23;8.48;;;;;;;9.67;100.00;102243.78;5001097;28;20034;-80
2021/09/06 01:57:09;;;;;;;10.20;7.45;;;;;;;9.64;100.00;102241.34;4989620;28;20117;-79
2021/09/06 01:59:35;;;;;;;12.80;8.30;;;;;;;9.62;100.00;102240.63;4988829;28;20117;-79
2021/09/06 02:02:01;;;;;;;13.13;9.18;;;;;;;9.54;100.00;102243.75;5006145;28;20060;-80
2021/09/06 02:04:34;;;;;;;11.45;9.00;;;;;;;9.53;100.00;102248.16;4990011;28;20573;-79
2021/09/06 02:06:59;;;;;;;13.85;9.13;;;;;;;9.49;100.00;102232.75;4972903;28;20038;-81
2021/09/06 02:09:25;;;;;;;10.95;8.68;;;;;;;9.50;100.00;102235.25;4974422;28;20036;-80
2021/09/06 02:11:50;;;;;;;15.25;9.68;;;;;;;9.42;100.00;102223.59;4975441;28;20025;-79
2021/09/06 02:14:16;;;;;;;12.88;8.70;;;;;;;9.39;100.00;102219.44;4975193;28;20058;-79
2021/09/06 02:16:45;;;;;;;13.23;8.52;;;;;;;9.42;100.00;102223.59;4990367;28;20030;-79
2021/09/06 02:19:30;;;;;;;15.10;10.15;;;;;;;9.41;100.00;102227.19;5008282;28;20046;-79
2021/09/06 02:21:56;;;;;;;14.73;10.13;;;;;;;9.40;100.00;102233.34;4986022;28;20769;-82
2021/09/06 02:24:24;;;;;;;14.05;9.50;;;;;;;9.36;100.00;102240.56;4991976;28;20034;-81
2021/09/06 02:26:56;;;;;;;15.45;9.73;;;;;;;9.30;100.00;102241.81;5009424;28;20045;-79
2021/09/06 02:29:24;;;;;;;16.65;10.32;;;;;;;9.31;100.00;102237.44;4976713;28;20046;-79
2021/09/06 02:31:59;;;;;;;17.75;10.40;;;;;;;9.26;100.00;102232.50;5011705;28;20033;-80
2021/09/06 02:34:37;;;;;;;15.45;10.27;;;;;;;9.23;100.00;102237.94;5013406;28;20043;-79
2021/09/06 02:37:03;;;;;;;15.98;10.07;;;;;;;9.18;100.00;102239.19;4981171;28;20037;-79
2021/09/06 02:39:37;;;;;;;18.75;11.55;;;;;;;9.22;100.00;102238.88;4997870;28;20127;-80
2021/09/06 02:42:03;;;;;;;24.90;12.63;;;;;;;9.20;100.00;102246.00;5001355;28;20499;-81
2021/09/06 02:44:33;;;;;;;21.65;12.88;;;;;;;9.16;100.00;102247.97;4993502;28;20038;-79
2021/09/06 02:47:03;;;;;;;15.77;11.35;;;;;;;9.16;100.00;102250.59;5011647;28;20038;-79
2021/09/06 02:49:29;;;;;;;16.52;10.50;;;;;;;9.16;100.00;102250.59;4978581;28;20053;-78
2021/09/06 02:51:55;;;;;;;16.13;9.57;;;;;;;9.13;100.00;102253.41;4978529;28;20042;-79
2021/09/06 02:54:22;;;;;;;18.98;9.52;;;;;;;9.09;100.00;102254.53;5009009;28;20038;-78
2021/09/06 02:56:47;;;;;;;11.68;7.97;;;;;;;9.04;100.00;102246.19;4990639;28;20033;-78
2021/09/06 02:59:14;;;;;;;10.30;7.95;;;;;;;8.98;100.00;102241.31;4975307;28;20029;-79
2021/09/06 03:01:40;;;;;;;13.73;7.25;;;;;;;9.02;100.00;102248.03;4980974;28;20062;-80
2021/09/06 03:04:06;;;;;;;10.27;7.40;;;;;;;8.93;100.00;102241.63;4974157;28;20042;-79
2021/09/06 03:06:32;;;;;;;10.60;7.55;;;;;;;9.01;100.00;102245.53;4971761;28;20488;-78
2021/09/06 03:08:57;;;;;;;8.70;7.45;;;;;;;8.95;100.00;102258.06;5007199;28;20045;-78
2021/09/06 03:11:26;;;;;;;8.77;7.53;;;;;;;8.91;100.00;102264.44;4977156;28;20038;-78
2021/09/06 03:13:55;;;;;;;16.65;8.40;;;;;;;8.91;100.00;102258.34;5012423;28;20049;-78
2021/09/06 03:16:22;;;;;;;9.90;6.88;;;;;;;8.90;100.00;102251.44;4980678;28;20022;-78
2021/09/06 03:18:49;;;;;;;9.85;7.70;;;;;;;8.86;100.00;102256.03;4996122;28;20096;-77
2021/09/06 03:21:26;;;;;;;10.63;8.20;;;;;;;8.77;100.00;102231.28;4995722;28;20040;-79
2021/09/06 03:23:54;;;;;;;12.70;9.30;;;;;;;8.81;100.00;102238.94;5012554;28;20034;-79
2021/09/06 03:26:21;;;;;;;11.52;8.77;;;;;;;8.88;100.00;102258.56;4992609;28;20029;-78
2021/09/06 03:28:48;;;;;;;11.32;8.60;;;;;;;8.82;100.00;102238.84;5011184;28;20049;-78
2021/09/06 03:31:16;;;;;;;13.52;8.73;;;;;;;8.85;100.00;102248.28;4996351;28;20038;-79
2021/09/06 03:33:41;;;;;;;13.30;9.60;;;;;;;8.80;100.00;102235.50;4995114;28;20034;-79
2021/09/06 03:36:07;;;;;;;16.40;10.18;;;;;;;8.73;100.00;102234.22;5003178;28;20044;-79
2021/09/06 03:38:34;;;;;;;16.60;11.00;;;;;;;8.76;100.00;102245.31;5011946;28;20038;-79
2021/09/06 03:41:00;;;;;;;17.00;11.15;;;;;;;8.76;100.00;102245.31;5007108;28;20348;-78
2021/09/06 03:43:28;;;;;;;15.77;10.65;;;;;;;8.73;100.00;102229.81;5011871;28;20054;-78
2021/09/06 03:45:54;;;;;;;18.50;11.07;;;;;;;8.74;100.00;102222.81;4979479;28;20028;-78
2021/09/06 03:48:20;;;;;;;16.80;11.23;;;;;;;8.71;100.00;102221.22;5004530;28;20069;-77
2021/09/06 03:50:48;;;;;;;18.48;12.40;;;;;;;8.72;100.00;102227.28;5003102;28;20038;-79
2021/09/06 03:53:15;;;;;;;20.50;12.95;;;;;;;8.71;100.00;102228.25;4995983;28;20045;-79
2021/09/06 03:55:40;;;;;;;19.48;12.48;;;;;;;8.71;100.00;102234.31;4994630;28;20033;-78
2021/09/06 03:58:07;;;;;;;19.48;12.98;;;;;;;8.69;100.00;102233.56;5010228;28;20018;-76
2021/09/06 04:00:36;;;;;;;19.88;13.27;;;;;;;8.68;100.00;102233.66;5011018;28;20071;-78
2021/09/06 04:03:02;;;;;;;22.00;13.68;;;;;;;8.62;100.00;102234.06;5003719;28;20057;-80
2021/09/06 04:05:28;;;;;;;21.25;12.98;;;;;;;8.61;100.00;102243.69;4962909;28;20037;-78
2021/09/06 04:07:56;;;;;;;20.73;12.88;;;;;;;8.52;100.00;102231.19;5011380;28;20065;-78
2021/09/06 04:10:22;;;;;;;19.98;11.85;;;;;;;8.57;100.00;102239.59;5011285;28;20034;-79
2021/09/06 04:12:48;;;;;;;19.67;11.65;;;;;;;8.55;100.00;102244.91;5011256;28;20042;-78
2021/09/06 04:15:14;;;;;;;23.35;12.27;;;;;;;8.49;100.00;102234.81;5009312;28;20100;-79
2021/09/06 04:17:39;;;;;;;20.52;12.70;;;;;;;8.60;100.00;102249.00;5003051;28;20183;-79
2021/09/06 04:20:07;;;;;;;21.35;12.15;;;;;;;8.52;100.00;102229.41;5011743;28;20041;-79
2021/09/06 04:22:34;;;;;;;24.95;12.57;;;;;;;8.62;100.00;102252.38;5011414;28;20037;-79
2021/09/06 04:25:02;;;;;;;19.17;12.20;;;;;;;8.64;100.00;102246.09;4978593;28;20124;-79
2021/09/06 04:27:28;;;;;;;17.48;11.10;;;;;;;8.62;100.00;102245.34;5010962;28;20112;-78
2021/09/06 04:29:53;;;;;;;18.75;11.18;;;;;;;8.70;100.00;102253.56;5004277;28;20397;-81
2021/09/06 04:32:19;;;;;;;20.08;12.15;;;;;;;8.65;100.00;102247.78;5012907;28;20068;-79
2021/09/06 04:34:45;;;;;;;18.98;11.75;;;;;;;8.69;100.00;102243.19;5011560;28;20384;-78
2021/09/06 04:37:10;;;;;;;17.48;10.52;;;;;;;8.72;100.00;102250.84;4995236;28;20030;-79
2021/09/06 04:39:41;;;;;;;18.80;11.15;;;;;;;8.72;100.00;102250.84;4994421;28;20121;-79
2021/09/06 04:42:07;;;;;;;16.75;11.93;;;;;;;8.61;100.00;102221.91;5011715;28;20041;-79
2021/09/06 04:44:33;;;;;;;20.95;11.88;;;;;;;8.66;100.00;102240.75;4975017;28;20460;-79
2021/09/06 04:46:59;;;;;;;16.02;11.82;;;;;;;8.79;100.00;102249.50;5010650;28;20034;-79
2021/09/06 04:49:24;;;;;;;16.90;12.07;;;;;;;8.79;100.00;102259.97;4990357;28;20052;-78
2021/09/06 04:51:50;;;;;;;15.90;12.07;;;;;;;8.76;100.00;102253.19;5011433;28;20041;-79
2021/09/06 04:54:18;;;;;;;18.55;11.60;;;;;;;8.75;100.00;102259.31;5011221;28;20038;-78
2021/09/06 04:56:45;;;;;;;21.55;11.65;;;;;;;8.80;100.00;102255.56;5009916;28;20026;-80
2021/09/06 04:59:11;;;;;;;16.98;10.98;;;;;;;8.82;100.00;102267.63;5010544;28;20029;-80
2021/09/06 05:01:37;;;;;;;20.02;11.90;;;;;;;8.83;100.00;102263.25;4994433;28;20037;-79
2021/09/06 05:04:03;;;;;;;55.60;12.85;;;;;;;8.84;100.00;102262.31;4977236;28;20029;-78
2021/09/06 05:06:29;;;;;;;39.42;11.50;;;;;;;8.81;100.00;102265.13;4992560;28;20038;-79
2021/09/06 05:08:57;;;;;;;41.60;11.90;;;;;;;8.80;100.00;102263.41;5010358;28;20036;-80
2021/09/06 05:11:23;;;;;;;20.88;11.15;;;;;;;8.83;100.00;102274.53;4992270;28;20033;-79
2021/09/06 05:13:49;;;;;;;16.63;10.00;;;;;;;8.87;100.00;102272.56;4993743;28;20036;-80
2021/09/06 05:16:16;;;;;;;16.17;10.85;;;;;;;8.87;100.00;102259.47;5009821;28;20046;-78
2021/09/06 05:18:46;;;;;;;14.73;11.30;;;;;;;8.97;100.00;102268.44;4978024;28;20049;-79
2021/09/06 05:21:12;;;;;;;15.85;10.57;;;;;;;9.02;100.00;102274.19;5010428;28;20037;-79
2021/09/06 05:23:38;;;;;;;26.83;11.68;;;;;;;9.03;100.00;102280.28;5011006;28;20030;-78
2021/09/06 05:26:05;;;;;;;17.27;12.18;;;;;;;9.10;100.00;102274.56;4993608;28;20116;-78
2021/09/06 05:28:31;;;;;;;14.80;10.95;;;;;;;9.17;100.00;102272.38;5006433;28;20106;-78
2021/09/06 05:30:57;;;;;;;14.57;10.77;;;;;;;9.27;100.00;102275.25;5010777;28;20065;-78
2021/09/06 05:33:24;;;;;;;22.23;11.88;;;;;;;9.38;100.00;102279.75;5010362;28;20117;-77
2021/09/06 05:35:50;;;;;;;19.85;12.60;;;;;;;9.35;100.00;102276.41;4975969;28;20072;-78
2021/09/06 05:38:16;;;;;;;29.48;11.35;;;;;;;9.35;100.00;102279.03;5010249;28;20058;-78
2021/09/06 05:41:00;;;;;;;21.52;10.60;;;;;;;9.44;100.00;102276.75;5010033;28;20045;-78
2021/09/06 05:43:26;;;;;;;13.35;9.50;;;;;;;9.40;100.00;102277.88;4993056;28;20048;-78
2021/09/06 05:45:52;;;;;;;18.35;11.25;;;;;;;9.45;100.00;102284.50;4989348;28;20030;-79
2021/09/06 05:48:19;;;;;;;15.48;11.18;;;;;;;9.52;100.00;102287.56;5001975;28;20116;-79
2021/09/06 05:50:45;;;;;;;18.80;11.45;;;;;;;9.61;100.00;102280.88;5010143;28;20037;-78
2021/09/06 05:53:29;;;;;;;14.50;11.18;;;;;;;9.66;100.00;102284.88;5010433;28;20026;-79
2021/09/06 05:55:55;;;;;;;17.00;11.27;;;;;;;9.78;100.00;102293.69;4975481;28;20521;-79
2021/09/06 05:58:22;;;;;;;14.00;11.23;;;;;;;9.84;100.00;102298.50;4993311;28;20088;-78
2021/09/06 06:00:47;;;;;;;20.50;13.52;;;;;;;9.94;100.00;102296.09;5009617;28;20030;-77
2021/09/06 06:03:13;;;;;;;20.27;12.90;;;;;;;9.91;100.00;102297.16;4976364;28;20042;-78
2021/09/06 06:05:41;;;;;;;22.73;13.45;;;;;;;10.07;100.00;102304.78;4992280;28;20125;-78
2021/09/06 06:08:07;;;;;;;33.40;12.68;;;;;;;10.11;100.00;102308.91;5008945;28;20469;-80
2021/09/06 06:10:33;;;;;;;25.45;11.88;;;;;;;10.17;100.00;102310.28;5009343;28;20905;-78
2021/09/06 06:12:59;;;;;;;19.58;11.45;;;;;;;10.30;100.00;102310.22;5010333;28;20057;-78
2021/09/06 06:15:25;;;;;;;20.27;11.98;;;;;;;10.46;100.00;102315.31;5009526;28;20124;-79
2021/09/06 06:17:50;;;;;;;20.83;12.55;;;;;;;10.54;100.00;102306.88;5002382;28;20080;-78
2021/09/06 06:20:18;;;;;;;20.83;12.20;;;;;;;10.69;100.00;102305.81;5009273;28;20041;-79
2021/09/06 06:23:08;;;;;;;20.63;12.97;;;;;;;10.75;100.00;102302.72;5007602;28;20044;-79
2021/09/06 06:25:45;;;;;;;19.30;12.15;;;;;;;10.83;100.00;102308.28;5009633;28;20451;-79
2021/09/06 06:28:14;;;;;;;19.95;12.52;;;;;;;10.83;100.00;102303.03;5007011;28;20046;-80
2021/09/06 06:30:40;;;;;;;20.33;12.25;;;;;;;10.87;100.00;102299.25;5009600;28;20042;-80
2021/09/06 06:33:07;;;;;;;19.02;12.80;;;;;;;11.12;100.00;102307.97;4981077;28;20121;-80
2021/09/06 06:35:42;;;;;;;23.48;14.50;;;;;;;11.19;100.00;102306.56;4991077;28;20038;-80
2021/09/06 06:38:07;;;;;;;24.20;14.70;;;;;;;11.31;100.00;102310.06;4992861;28;20088;-80
2021/09/06 06:40:36;;;;;;;23.98;14.18;;;;;;;11.46;100.00;102302.84;4996559;28;20096;-79
2021/09/06 06:43:04;;;;;;;25.15;14.50;;;;;;;11.58;100.00;102308.97;5009003;28;20142;-77
2021/09/06 06:45:30;;;;;;;25.25;15.60;;;;;;;11.76;100.00;102314.66;4977596;28;20083;-79
2021/09/06 06:47:56;;;;;;;25.98;15.38;;;;;;;11.77;100.00;102303.16;4993447;28;20026;-80
2021/09/06 06:50:24;;;;;;;27.73;15.50;;;;;;;11.94;100.00;102313.31;4980517;28;20504;-80
2021/09/06 06:52:51;;;;;;;24.33;15.50;;;;;;;12.01;100.00;102314.47;4997774;28;20029;-80
2021/09/06 06:55:17;;;;;;;23.60;15.32;;;;;;;12.12;100.00;102320.72;5012458;28;20038;-80
2021/09/06 06:57:43;;;;;;;25.05;15.23;;;;;;;12.21;100.00;102320.84;4996263;28;20038;-80
2021/09/06 07:00:09;;;;;;;23.23;14.45;;;;;;;12.41;100.00;102327.19;5010220;28;20545;-81
2021/09/06 07:02:38;;;;;;;27.73;16.13;;;;;;;12.56;100.00;102321.69;5025062;28;20041;-78
2021/09/06 07:05:05;;;;;;;27.75;15.90;;;;;;;12.73;100.00;102318.53;4994787;28;20038;-80
2021/09/06 07:07:34;;;;;;;29.17;15.40;;;;;;;12.89;100.00;102306.81;4976759;28;20513;-78
2021/09/06 07:10:01;;;;;;;27.02;15.60;;;;;;;13.03;100.00;102306.50;5012018;28;20107;-78
2021/09/06 07:12:26;;;;;;;28.10;15.55;;;;;;;13.27;100.00;102308.13;4979276;28;20038;-80
2021/09/06 07:14:52;;;;;;;28.08;16.42;;;;;;;13.28;100.00;102313.25;4979513;28;20128;-79
2021/09/06 07:17:17;;;;;;;30.20;16.77;;;;;;;13.46;100.00;102310.94;5013050;28;20037;-79
2021/09/06 07:19:43;;;;;;;28.02;16.80;;;;;;;13.56;100.00;102308.34;5012986;28;20496;-78
2021/09/06 07:22:09;;;;;;;35.15;18.10;;;;;;;13.76;100.00;102319.88;4990540;28;20034;-79
2021/09/06 07:24:36;;;;;;;31.13;18.08;;;;;;;14.03;100.00;102319.34;4997174;28;20084;-80
2021/09/06 07:27:02;;;;;;;30.67;17.90;;;;;;;14.14;100.00;102319.25;5009170;28;20049;-80
2021/09/06 07:29:27;;;;;;;27.80;17.35;;;;;;;14.35;100.00;102313.09;4971992;28;20038;-78
2021/09/06 07:31:55;;;;;;;34.67;18.35;;;;;;;14.59;100.00;102318.91;5021072;28;20041;-78
2021/09/06 07:34:21;;;;;;;31.75;18.70;;;;;;;14.79;100.00;102317.16;4991152;28;20049;-78
2021/09/06 07:36:47;;;;;;;38.50;19.98;;;;;;;14.99;100.00;102323.31;5024181;28;20026;-78
2021/09/06 07:39:16;;;;;;;34.90;19.33;;;;;;;15.18;100.00;102330.44;5011721;28;20053;-78
2021/09/06 07:41:45;;;;;;;29.75;17.77;;;;;;;15.45;99.65;102326.25;5011523;28;20041;-78
2021/09/06 07:44:11;;;;;;;35.85;19.50;;;;;;;15.57;97.87;102340.16;5007056;28;20033;-78
2021/09/06 07:46:38;;;;;;;37.10;19.45;;;;;;;15.64;98.78;102338.63;5010054;28;20065;-79
2021/09/06 07:49:04;;;;;;;33.20;19.27;;;;;;;15.76;98.51;102323.47;4989862;28;20508;-80
2021/09/06 07:51:30;;;;;;;33.67;19.35;;;;;;;15.94;97.65;102344.75;5006085;28;20487;-79
2021/09/06 07:53:55;;;;;;;33.42;19.40;;;;;;;15.89;96.90;102329.28;4967236;28;20042;-79
2021/09/06 07:56:21;;;;;;;38.38;21.13;;;;;;;15.85;97.63;102341.13;4992606;28;20120;-78
2021/09/06 07:58:47;;;;;;;38.63;21.60;;;;;;;15.85;97.45;102340.31;4994708;28;20030;-79
2021/09/06 08:01:13;;;;;;;39.47;21.08;;;;;;;15.81;96.77;102337.13;5012147;28;20042;-79
2021/09/06 08:03:39;;;;;;;46.58;21.73;;;;;;;15.74;97.67;102336.00;5011895;28;20037;-79
2021/09/06 08:06:04;;;;;;;39.15;21.33;;;;;;;15.77;97.61;102327.78;4974081;28;20042;-79
2021/09/06 08:08:30;;;;;;;37.60;21.52;;;;;;;15.88;99.34;102343.50;4978060;28;20133;-77
2021/09/06 08:10:57;;;;;;;37.72;20.63;;;;;;;16.01;100.00;102337.06;5007133;28;20041;-78
2021/09/06 08:13:29;;;;;;;36.85;21.17;;;;;;;16.06;95.98;102340.94;5011919;28;20099;-79
2021/09/06 08:15:54;;;;;;;38.60;20.38;;;;;;;16.08;97.60;102360.16;5003309;28;20493;-79
2021/09/06 08:18:20;;;;;;;47.92;22.70;;;;;;;15.96;95.58;102351.56;5011418;28;20036;-80
2021/09/06 08:20:49;;;;;;;36.85;21.15;;;;;;;15.83;96.81;102347.56;4977894;28;20499;-79
2021/09/06 08:23:15;;;;;;;36.33;20.48;;;;;;;15.84;100.00;102349.22;4995216;28;20172;-80
2021/09/06 08:25:44;;;;;;;37.53;20.17;;;;;;;15.93;96.97;102362.41;4994884;28;20779;-79
2021/09/06 08:28:10;;;;;;;54.88;22.05;;;;;;;16.06;98.43;102361.28;4993292;28;20500;-79
2021/09/06 08:30:38;;;;;;;39.78;21.83;;;;;;;16.32;95.85;102367.63;5023437;28;20037;-79
2021/09/06 08:33:03;;;;;;;38.13;20.38;;;;;;;16.66;95.57;102364.41;5010476;28;20069;-80
2021/09/06 08:35:30;;;;;;;35.97;19.15;;;;;;;16.82;91.54;102361.16;4986992;28;20045;-80
2021/09/06 08:37:56;;;;;;;30.38;18.02;;;;;;;16.99;93.47;102369.28;5018549;28;20396;-79
2021/09/06 08:40:22;;;;;;;32.80;16.95;;;;;;;17.19;86.61;102370.81;5007131;28;20057;-77
2021/09/06 08:42:50;;;;;;;30.80;17.15;;;;;;;17.45;89.22;102375.38;5010979;28;20038;-81
2021/09/06 08:45:15;;;;;;;28.30;16.20;;;;;;;17.61;89.77;102375.53;5010348;28;20041;-78
2021/09/06 08:47:44;;;;;;;26.63;14.88;;;;;;;17.78;86.36;102373.84;4986781;28;20038;-80
2021/09/06 08:50:12;;;;;;;29.25;15.98;;;;;;;17.87;86.98;102374.75;5000797;28;20128;-78
2021/09/06 08:52:39;;;;;;;29.00;14.40;;;;;;;18.04;83.11;102375.69;4994937;28;20041;-78
2021/09/06 08:55:06;;;;;;;28.27;13.48;;;;;;;18.18;84.27;102374.28;4994543;28;20522;-77
2021/09/06 08:57:31;;;;;;;24.77;12.98;;;;;;;18.16;84.54;102379.75;5008133;28;20118;-79
2021/09/06 08:59:58;;;;;;;19.65;13.35;;;;;;;18.11;82.59;102374.06;4978442;28;20154;-79
2021/09/06 09:02:36;;;;;;;31.52;13.77;;;;;;;18.17;82.32;102377.94;4995537;28;20117;-78
2021/09/06 09:05:26;;;;;;;24.15;14.05;;;;;;;18.18;80.43;102372.47;5008690;28;20049;-79
2021/09/06 09:08:04;;;;;;;23.85;13.88;;;;;;;18.28;77.87;102369.69;5009715;28;20030;-80
2021/09/06 09:11:04;;;;;;;29.73;14.90;;;;;;;18.44;77.40;102385.72;4994620;28;20507;-77
2021/09/06 09:13:50;;;;;;;25.77;13.50;;;;;;;18.42;79.25;102384.19;5011057;28;20558;-81
2021/09/06 09:16:31;;;;;;;21.85;12.98;;;;;;;18.45;78.13;102382.06;5012125;28;20064;-77
2021/09/06 09:19:22;;;;;;;19.33;11.88;;;;;;;18.43;80.84;102380.56;4996688;28;20041;-78
2021/09/06 09:22:37;;;;;;;21.02;13.23;;;;;;;18.57;79.53;102382.63;5011285;28;20041;-78
2021/09/06 09:25:33;;;;;;;23.45;12.98;;;;;;;18.75;84.12;102381.69;5008313;28;20071;-77
2021/09/06 09:28:27;;;;;;;20.92;12.57;;;;;;;18.78;79.89;102382.22;5009104;28;20037;-78
2021/09/06 09:31:18;;;;;;;20.90;13.27;;;;;;;18.93;75.39;102387.78;4986436;28;20394;-78
2021/09/06 09:33:48;;;;;;;18.88;11.93;;;;;;;19.01;81.03;102385.13;4993206;28;20092;-80
2021/09/06 09:36:38;;;;;;;17.10;11.48;;;;;;;19.03;81.86;102383.13;5009192;28;20036;-79
2021/09/06 09:39:18;;;;;;;19.60;12.35;;;;;;;19.09;74.65;102372.84;5005585;28;20153;-80
2021/09/06 09:41:49;;;;;;;20.73;11.90;;;;;;;19.25;74.03;102381.69;5006020;28;20037;-80
2021/09/06 09:44:20;;;;;;;22.08;12.15;;;;;;;19.39;75.94;102382.84;5010595;28;20042;-78
2021/09/06 09:47:03;;;;;;;20.42;12.68;;;;;;;19.48;74.00;102377.53;4980316;28;20531;-79
2021/09/06 09:49:34;;;;;;;22.83;11.50;;;;;;;19.58;77.00;102367.56;4991404;28;20040;-83
2021/09/06 09:52:01;;;;;;;23.48;13.10;;;;;;;19.56;72.19;102367.72;5020071;28;20096;-80
2021/09/06 09:54:27;;;;;;;20.90;12.90;;;;;;;19.73;71.90;102365.09;5008841;28;20041;-77
2021/09/06 09:56:53;;;;;;;22.98;12.80;;;;;;;19.99;70.28;102375.56;5008275;28;20028;-79
2021/09/06 09:59:19;;;;;;;16.63;11.50;;;;;;;20.23;73.03;102372.84;5003007;28;20042;-78
2021/09/06 10:02:11;;;;;;;21.65;11.70;;;;;;;20.27;66.61;102369.81;4993420;28;20030;-79
2021/09/06 10:04:46;;;;;;;17.92;11.52;;;;;;;20.28;65.65;102360.81;4993092;28;20042;-80
2021/09/06 10:07:12;;;;;;;18.40;11.73;;;;;;;19.94;65.60;102360.06;5007861;28;20041;-78
2021/09/06 10:09:42;;;;;;;19.95;11.02;;;;;;;19.91;67.01;102359.56;5009426;28;20112;-80
2021/09/06 10:12:09;;;;;;;18.15;10.68;;;;;;;19.79;69.68;102364.44;5005838;28;20029;-78
2021/09/06 10:14:35;;;;;;;20.17;10.60;;;;;;;19.80;72.63;102356.28;4992859;28;20057;-79
2021/09/06 10:17:09;;;;;;;18.73;11.52;;;;;;;19.80;68.71;102356.28;5009884;28;20453;-78
2021/09/06 10:19:45;;;;;;;16.85;10.45;;;;;;;19.86;68.96;102360.09;5008733;28;20042;-79
2021/09/06 10:22:25;;;;;;;17.45;10.02;;;;;;;20.06;70.21;102349.06;5010498;28;20373;-79
2021/09/06 10:25:04;;;;;;;17.95;10.50;;;;;;;20.15;67.61;102353.38;5009227;28;20026;-80
2021/09/06 10:27:32;;;;;;;16.17;10.02;;;;;;;20.07;71.45;102353.41;5011037;28;20045;-77
2021/09/06 10:30:01;;;;;;;17.95;10.82;;;;;;;19.98;71.13;102352.56;5009159;28;20030;-78
2021/09/06 10:32:39;;;;;;;19.95;11.10;;;;;;;19.89;73.75;102356.25;5010546;28;20038;-80
2021/09/06 10:35:09;;;;;;;16.27;10.25;;;;;;;19.84;71.25;102357.59;5008536;28;20365;-80
2021/09/06 10:37:36;;;;;;;19.08;10.35;;;;;;;19.87;68.77;102355.59;4977402;28;20046;-79
2021/09/06 10:40:08;;;;;;;16.95;10.55;;;;;;;19.89;74.90;102356.25;5004831;28;20095;-78
2021/09/06 10:42:36;;;;;;;18.98;10.93;;;;;;;19.92;73.46;102362.06;5025291;28;20451;-81
2021/09/06 10:45:06;;;;;;;18.90;9.95;;;;;;;19.62;74.77;102348.44;4976955;28;20492;-81
2021/09/06 10:47:39;;;;;;;20.55;10.85;;;;;;;19.54;74.86;102353.75;4979768;28;20582;-80
2021/09/06 10:50:17;;;;;;;17.02;11.32;;;;;;;19.57;74.04;102353.44;5011264;28;20061;-81
2021/09/06 10:52:47;;;;;;;15.60;10.30;;;;;;;19.55;78.41;102350.13;5006042;28;20042;-79
2021/09/06 10:55:14;;;;;;;15.98;10.68;;;;;;;19.58;74.83;102355.09;5004113;28;20037;-79
2021/09/06 10:57:42;;;;;;;18.90;10.00;;;;;;;19.64;77.00;102356.25;4988025;28;20033;-79
2021/09/06 11:00:17;;;;;;;23.45;10.73;;;;;;;19.72;75.29;102355.41;5009965;28;20033;-80
2021/09/06 11:02:44;;;;;;;17.17;10.02;;;;;;;19.90;75.54;102347.28;4993216;28;20038;-81
2021/09/06 11:05:21;;;;;;;26.20;10.82;;;;;;;19.94;77.52;102343.28;4993728;28;20085;-80
2021/09/06 11:07:48;;;;;;;15.82;9.80;;;;;;;19.96;76.64;102351.91;5008625;28;20074;-79
2021/09/06 11:10:19;;;;;;;19.02;10.00;;;;;;;19.95;74.93;102351.09;5008057;28;20037;-80
2021/09/06 11:12:53;;;;;;;25.35;10.18;;;;;;;20.02;71.88;102348.56;5008551;28;20037;-77
2021/09/06 11:15:35;;;;;;;18.25;9.55;;;;;;;20.23;69.21;102356.84;4998710;28;20841;-80
2021/09/06 11:18:04;;;;;;;17.13;10.20;;;;;;;20.11;67.61;102355.53;4991886;28;20029;-79